首页
METAR-TAF:

METAR-TAF

机场 :

安東尼奧·汪帕特國際機場

阿加尼亚, 關島, 美国

纬度: 13-29N, 经度: 144-48E, 海拔: 91米

当前天气观测

该预报发布于22分钟前的05:01 UTC
风速9节,风向
温度 28°C
湿度 89%
气压 1009 hPa
能見度: 9.7公里
少量云层高于1900英尺
多云层高于3600英尺
阴天层高于7000英尺
小雨, 轻雾

METAR: PGUM 190501Z 01009KT 6SM -RA BR FEW019 BKN036 OVC070 28/26 A2980 RMK AO2 P0000 T02780261

时间: 15:23 (05:23 UTC)

预报

该预报发布于3小时和22分钟前的02:01 UTC
预报有效从19日的 02点(UTC)到 20日的 06点(UTC)
风速13节,风向
能見度: 10公里
少量云层高于1700英尺
多云层高于3500英尺
附近有阵雨
从 19日的 0900点(UTC)
风速7节,风向北转东北
能見度: 10公里
少量云层高于1700英尺
散云层高于3500英尺
附近有阵雨

TAF: PGUM 190201Z 1902/2006 35013KT P6SM VCSH FEW017 BKN035 FM190900 03007KT P6SM VCSH FEW017 SCT035

超过4000个机场的气象观测和天气预报(METAR&TAF报告)。

可查询的气象台以黄色和红色小点在地图上表示。

将鼠标移到小点上方,可查看气象台名称。

然后点击查看天气观测和预报。

如需切换地图:点击带黑十字的绿色按钮放大地图;点击带横线的绿色按钮缩小地图;或者点击绿色箭头查看邻近地区的地图。


METAR-TAF: